Terminal Aerodrome Forecast
Issued by NWS

Home | Current Version | Previous Version | Text Only | Print | Product List | Glossary On
Versions: 1 2 3 4 5 6 7 8 9 10 11 12 13 14 15 16 17 18
053
FTUS43 KMQT 091133
TAFCMX
TAF
KCMX 091133Z 0912/1012 35016G24KT 1 1/2SM -SHSN BLSN OVC015
      TEMPO 0912/0915 3/4SM -SHSN BKN008
     FM092200 35017G26KT 3SM -SHSN BLSN OVC015
     FM100100 35017G25KT 2SM -SHSN BLSN OVC015=

USA.gov is the U.S. government's official web portal to all federal, state and local government web resources and services.